sensor_id;sensor_type;location;lat;lon;timestamp;P1;durP1;ratioP1;P2;durP2;ratioP2
4122;SDS011;2075;51.062;6.920;2024-03-23T00:54:11;10.60;;;3.60;;
4122;SDS011;2075;51.062;6.920;2024-03-23T00:56:55;11.87;;;3.60;;
4122;SDS011;2075;51.062;6.920;2024-03-23T00:59:41;13.70;;;4.17;;
4122;SDS011;2075;51.062;6.920;2024-03-23T01:02:25;11.73;;;4.03;;
4122;SDS011;2075;51.062;6.920;2024-03-23T01:05:11;7.40;;;2.87;;
4122;SDS011;2075;51.062;6.920;2024-03-23T01:07:55;6.13;;;2.87;;
4122;SDS011;2075;51.062;6.920;2024-03-23T01:10:42;16.33;;;3.40;;
4122;SDS011;2075;51.062;6.920;2024-03-23T01:13:26;8.80;;;3.43;;
4122;SDS011;2075;51.062;6.920;2024-03-23T01:16:13;15.53;;;3.73;;
4122;SDS011;2075;51.062;6.920;2024-03-23T01:18:57;9.30;;;3.57;;
4122;SDS011;2075;51.062;6.920;2024-03-23T01:21:42;12.00;;;4.20;;
4122;SDS011;2075;51.062;6.920;2024-03-23T01:24:27;9.83;;;4.23;;
4122;SDS011;2075;51.062;6.920;2024-03-23T01:27:14;15.43;;;3.47;;
4122;SDS011;2075;51.062;6.920;2024-03-23T01:29:58;12.90;;;4.47;;
4122;SDS011;2075;51.062;6.920;2024-03-23T01:32:43;12.30;;;5.03;;
4122;SDS011;2075;51.062;6.920;2024-03-23T01:35:29;10.60;;;4.30;;
4122;SDS011;2075;51.062;6.920;2024-03-23T01:38:13;11.83;;;4.13;;
4122;SDS011;2075;51.062;6.920;2024-03-23T01:40:58;9.30;;;3.80;;
4122;SDS011;2075;51.062;6.920;2024-03-23T01:43:44;11.63;;;3.77;;
4122;SDS011;2075;51.062;6.920;2024-03-23T01:46:30;9.40;;;3.63;;
4122;SDS011;2075;51.062;6.920;2024-03-23T01:49:15;12.07;;;4.20;;
4122;SDS011;2075;51.062;6.920;2024-03-23T01:52:01;8.83;;;3.73;;
4122;SDS011;2075;51.062;6.920;2024-03-23T01:54:46;8.90;;;3.77;;
4122;SDS011;2075;51.062;6.920;2024-03-23T01:57:32;9.80;;;3.43;;
4122;SDS011;2075;51.062;6.920;2024-03-23T02:00:18;8.00;;;3.40;;
4122;SDS011;2075;51.062;6.920;2024-03-23T02:03:16;21.90;;;4.07;;
4122;SDS011;2075;51.062;6.920;2024-03-23T02:06:06;10.37;;;4.10;;
4122;SDS011;2075;51.062;6.920;2024-03-23T02:08:52;7.00;;;3.33;;
4122;SDS011;2075;51.062;6.920;2024-03-23T02:11:37;9.20;;;3.80;;
4122;SDS011;2075;51.062;6.920;2024-03-23T02:14:22;17.90;;;4.20;;
4122;SDS011;2075;51.062;6.920;2024-03-23T02:17:08;7.87;;;4.07;;
4122;SDS011;2075;51.062;6.920;2024-03-23T02:19:54;13.23;;;4.37;;
4122;SDS011;2075;51.062;6.920;2024-03-23T02:22:38;7.20;;;3.03;;
4122;SDS011;2075;51.062;6.920;2024-03-23T02:25:25;11.73;;;3.57;;
4122;SDS011;2075;51.062;6.920;2024-03-23T02:28:09;13.27;;;3.47;;
4122;SDS011;2075;51.062;6.920;2024-03-23T02:30:55;15.17;;;3.87;;
4122;SDS011;2075;51.062;6.920;2024-03-23T02:33:40;12.83;;;3.37;;
4122;SDS011;2075;51.062;6.920;2024-03-23T02:36:25;9.23;;;3.37;;
4122;SDS011;2075;51.062;6.920;2024-03-23T02:39:10;9.67;;;3.53;;
4122;SDS011;2075;51.062;6.920;2024-03-23T02:41:57;8.23;;;2.83;;
4122;SDS011;2075;51.062;6.920;2024-03-23T02:44:41;10.03;;;2.53;;
4122;SDS011;2075;51.062;6.920;2024-03-23T02:47:27;12.13;;;2.77;;
4122;SDS011;2075;51.062;6.920;2024-03-23T02:50:11;15.60;;;3.50;;
4122;SDS011;2075;51.062;6.920;2024-03-23T02:52:58;7.90;;;2.80;;
4122;SDS011;2075;51.062;6.920;2024-03-23T02:55:43;11.17;;;2.73;;
4122;SDS011;2075;51.062;6.920;2024-03-23T02:58:30;8.33;;;2.47;;
4122;SDS011;2075;51.062;6.920;2024-03-23T03:01:14;6.73;;;2.50;;
4122;SDS011;2075;51.062;6.920;2024-03-23T03:04:00;14.33;;;3.47;;
4122;SDS011;2075;51.062;6.920;2024-03-23T03:06:46;6.80;;;3.50;;
4122;SDS011;2075;51.062;6.920;2024-03-23T03:09:31;5.73;;;4.30;;
4122;SDS011;2075;51.062;6.920;2024-03-23T03:12:16;8.33;;;3.60;;
4122;SDS011;2075;51.062;6.920;2024-03-23T03:15:04;11.90;;;3.63;;
4122;SDS011;2075;51.062;6.920;2024-03-23T03:17:49;7.13;;;4.37;;
4122;SDS011;2075;51.062;6.920;2024-03-23T03:20:34;8.87;;;3.47;;
4122;SDS011;2075;51.062;6.920;2024-03-23T03:23:23;8.47;;;3.17;;
4122;SDS011;2075;51.062;6.920;2024-03-23T03:26:07;8.00;;;3.83;;
4122;SDS011;2075;51.062;6.920;2024-03-23T03:28:53;7.23;;;3.60;;
4122;SDS011;2075;51.062;6.920;2024-03-23T03:31:39;16.83;;;3.67;;
4122;SDS011;2075;51.062;6.920;2024-03-23T03:34:24;7.40;;;3.00;;
4122;SDS011;2075;51.062;6.920;2024-03-23T03:37:09;7.27;;;3.30;;
4122;SDS011;2075;51.062;6.920;2024-03-23T03:39:54;9.43;;;3.00;;
4122;SDS011;2075;51.062;6.920;2024-03-23T03:42:39;7.03;;;3.13;;
4122;SDS011;2075;51.062;6.920;2024-03-23T03:45:24;9.33;;;3.07;;
4122;SDS011;2075;51.062;6.920;2024-03-23T03:48:10;6.30;;;2.60;;
4122;SDS011;2075;51.062;6.920;2024-03-23T03:50:55;11.60;;;2.97;;
4122;SDS011;2075;51.062;6.920;2024-03-23T03:53:40;13.67;;;2.70;;
4122;SDS011;2075;51.062;6.920;2024-03-23T03:56:25;18.33;;;3.40;;
4122;SDS011;2075;51.062;6.920;2024-03-23T03:59:09;14.33;;;2.93;;
4122;SDS011;2075;51.062;6.920;2024-03-23T04:01:55;7.03;;;2.60;;
4122;SDS011;2075;51.062;6.920;2024-03-23T04:04:41;12.83;;;2.80;;
4122;SDS011;2075;51.062;6.920;2024-03-23T04:07:26;7.10;;;2.50;;
4122;SDS011;2075;51.062;6.920;2024-03-23T04:10:11;8.10;;;3.10;;
4122;SDS011;2075;51.062;6.920;2024-03-23T04:12:56;7.53;;;2.40;;
4122;SDS011;2075;51.062;6.920;2024-03-23T04:15:41;7.30;;;3.13;;
4122;SDS011;2075;51.062;6.920;2024-03-23T04:18:29;9.83;;;2.40;;
4122;SDS011;2075;51.062;6.920;2024-03-23T04:21:15;13.37;;;2.83;;
4122;SDS011;2075;51.062;6.920;2024-03-23T04:24:00;9.43;;;2.00;;
4122;SDS011;2075;51.062;6.920;2024-03-23T04:26:45;11.43;;;2.00;;
4122;SDS011;2075;51.062;6.920;2024-03-23T04:29:30;15.37;;;2.90;;
4122;SDS011;2075;51.062;6.920;2024-03-23T04:32:15;14.67;;;4.40;;
4122;SDS011;2075;51.062;6.920;2024-03-23T04:35:01;12.57;;;3.10;;
4122;SDS011;2075;51.062;6.920;2024-03-23T04:37:48;11.17;;;2.37;;
4122;SDS011;2075;51.062;6.920;2024-03-23T04:40:33;8.00;;;2.40;;
4122;SDS011;2075;51.062;6.920;2024-03-23T04:43:19;7.90;;;2.70;;
4122;SDS011;2075;51.062;6.920;2024-03-23T04:46:04;7.23;;;2.50;;
4122;SDS011;2075;51.062;6.920;2024-03-23T04:48:49;11.30;;;3.30;;
4122;SDS011;2075;51.062;6.920;2024-03-23T04:51:35;12.43;;;3.23;;
4122;SDS011;2075;51.062;6.920;2024-03-23T04:54:23;10.03;;;3.10;;
4122;SDS011;2075;51.062;6.920;2024-03-23T04:57:09;8.67;;;2.70;;
4122;SDS011;2075;51.062;6.920;2024-03-23T04:59:55;17.27;;;3.00;;
4122;SDS011;2075;51.062;6.920;2024-03-23T05:02:39;10.63;;;2.50;;
4122;SDS011;2075;51.062;6.920;2024-03-23T05:05:25;9.20;;;2.83;;
4122;SDS011;2075;51.062;6.920;2024-03-23T05:08:09;12.17;;;2.97;;
4122;SDS011;2075;51.062;6.920;2024-03-23T05:10:56;8.13;;;3.83;;
4122;SDS011;2075;51.062;6.920;2024-03-23T05:13:41;19.50;;;7.90;;
4122;SDS011;2075;51.062;6.920;2024-03-23T05:16:26;9.73;;;3.97;;
4122;SDS011;2075;51.062;6.920;2024-03-23T05:19:12;7.70;;;3.47;;
4122;SDS011;2075;51.062;6.920;2024-03-23T05:21:56;13.90;;;3.20;;
4122;SDS011;2075;51.062;6.920;2024-03-23T05:24:42;12.00;;;3.50;;
4122;SDS011;2075;51.062;6.920;2024-03-23T05:27:27;9.10;;;3.30;;
4122;SDS011;2075;51.062;6.920;2024-03-23T05:30:13;14.70;;;2.93;;
4122;SDS011;2075;51.062;6.920;2024-03-23T05:32:58;12.70;;;3.00;;
4122;SDS011;2075;51.062;6.920;2024-03-23T05:35:43;17.17;;;3.77;;
4122;SDS011;2075;51.062;6.920;2024-03-23T05:38:28;14.07;;;3.43;;
4122;SDS011;2075;51.062;6.920;2024-03-23T05:41:13;11.17;;;4.00;;
4122;SDS011;2075;51.062;6.920;2024-03-23T05:43:59;14.73;;;4.40;;
4122;SDS011;2075;51.062;6.920;2024-03-23T05:46:45;21.70;;;5.10;;
4122;SDS011;2075;51.062;6.920;2024-03-23T05:49:32;29.83;;;12.73;;
4122;SDS011;2075;51.062;6.920;2024-03-23T05:52:17;11.43;;;4.37;;
4122;SDS011;2075;51.062;6.920;2024-03-23T05:55:02;21.83;;;3.63;;
4122;SDS011;2075;51.062;6.920;2024-03-23T05:57:47;10.47;;;3.63;;
4122;SDS011;2075;51.062;6.920;2024-03-23T06:00:33;6.53;;;3.57;;
4122;SDS011;2075;51.062;6.920;2024-03-23T06:03:18;9.80;;;3.00;;
4122;SDS011;2075;51.062;6.920;2024-03-23T06:06:04;10.23;;;3.00;;
4122;SDS011;2075;51.062;6.920;2024-03-23T06:08:54;19.20;;;4.33;;
4122;SDS011;2075;51.062;6.920;2024-03-23T06:11:39;8.13;;;3.40;;
4122;SDS011;2075;51.062;6.920;2024-03-23T06:14:24;18.73;;;4.00;;
4122;SDS011;2075;51.062;6.920;2024-03-23T06:17:11;12.40;;;5.80;;
4122;SDS011;2075;51.062;6.920;2024-03-23T06:19:55;12.77;;;4.53;;
4122;SDS011;2075;51.062;6.920;2024-03-23T06:22:41;7.53;;;3.23;;
4122;SDS011;2075;51.062;6.920;2024-03-23T06:25:26;9.73;;;4.30;;
4122;SDS011;2075;51.062;6.920;2024-03-23T06:28:12;16.70;;;4.30;;
4122;SDS011;2075;51.062;6.920;2024-03-23T06:30:57;10.57;;;3.83;;
4122;SDS011;2075;51.062;6.920;2024-03-23T06:33:43;8.03;;;3.50;;
4122;SDS011;2075;51.062;6.920;2024-03-23T06:36:29;12.20;;;3.90;;
4122;SDS011;2075;51.062;6.920;2024-03-23T06:39:14;11.37;;;3.73;;
4122;SDS011;2075;51.062;6.920;2024-03-23T06:42:00;8.90;;;3.30;;
4122;SDS011;2075;51.062;6.920;2024-03-23T06:44:44;13.87;;;4.83;;
4122;SDS011;2075;51.062;6.920;2024-03-23T06:47:32;17.87;;;4.23;;
4122;SDS011;2075;51.062;6.920;2024-03-23T06:50:18;15.80;;;3.80;;
4122;SDS011;2075;51.062;6.920;2024-03-23T06:53:05;12.00;;;4.57;;
4122;SDS011;2075;51.062;6.920;2024-03-23T06:55:51;8.80;;;3.50;;
4122;SDS011;2075;51.062;6.920;2024-03-23T06:58:37;5.97;;;2.90;;
4122;SDS011;2075;51.062;6.920;2024-03-23T07:01:22;7.10;;;2.93;;
4122;SDS011;2075;51.062;6.920;2024-03-23T07:04:08;11.57;;;4.10;;
4122;SDS011;2075;51.062;6.920;2024-03-23T07:06:56;10.47;;;3.50;;
4122;SDS011;2075;51.062;6.920;2024-03-23T07:09:45;6.43;;;3.20;;
4122;SDS011;2075;51.062;6.920;2024-03-23T07:12:31;12.70;;;4.10;;
4122;SDS011;2075;51.062;6.920;2024-03-23T07:15:17;8.30;;;3.20;;
4122;SDS011;2075;51.062;6.920;2024-03-23T07:18:01;11.07;;;3.73;;
4122;SDS011;2075;51.062;6.920;2024-03-23T07:20:53;10.87;;;3.70;;
4122;SDS011;2075;51.062;6.920;2024-03-23T07:23:43;6.00;;;3.33;;
4122;SDS011;2075;51.062;6.920;2024-03-23T07:26:29;17.07;;;6.03;;
4122;SDS011;2075;51.062;6.920;2024-03-23T07:29:14;6.80;;;4.07;;
4122;SDS011;2075;51.062;6.920;2024-03-23T07:31:59;13.40;;;7.40;;
4122;SDS011;2075;51.062;6.920;2024-03-23T07:34:44;7.77;;;4.30;;
4122;SDS011;2075;51.062;6.920;2024-03-23T07:37:29;9.77;;;3.77;;
4122;SDS011;2075;51.062;6.920;2024-03-23T07:40:16;13.90;;;4.00;;
4122;SDS011;2075;51.062;6.920;2024-03-23T07:43:01;10.60;;;3.70;;
4122;SDS011;2075;51.062;6.920;2024-03-23T07:45:50;9.73;;;4.60;;
4122;SDS011;2075;51.062;6.920;2024-03-23T07:48:37;7.70;;;3.60;;
4122;SDS011;2075;51.062;6.920;2024-03-23T07:51:24;14.43;;;3.90;;
4122;SDS011;2075;51.062;6.920;2024-03-23T07:54:08;11.00;;;4.63;;
4122;SDS011;2075;51.062;6.920;2024-03-23T07:56:58;23.10;;;7.03;;
4122;SDS011;2075;51.062;6.920;2024-03-23T07:59:42;21.77;;;6.10;;
4122;SDS011;2075;51.062;6.920;2024-03-23T08:02:28;12.60;;;4.83;;
4122;SDS011;2075;51.062;6.920;2024-03-23T08:05:13;13.77;;;6.40;;
4122;SDS011;2075;51.062;6.920;2024-03-23T08:07:59;17.70;;;6.20;;
4122;SDS011;2075;51.062;6.920;2024-03-23T08:10:47;17.97;;;5.43;;
4122;SDS011;2075;51.062;6.920;2024-03-23T08:13:35;14.87;;;5.90;;
4122;SDS011;2075;51.062;6.920;2024-03-23T08:16:20;13.13;;;5.93;;
4122;SDS011;2075;51.062;6.920;2024-03-23T08:19:07;16.50;;;7.30;;
4122;SDS011;2075;51.062;6.920;2024-03-23T08:21:52;13.10;;;5.17;;
4122;SDS011;2075;51.062;6.920;2024-03-23T08:24:38;10.63;;;5.00;;
4122;SDS011;2075;51.062;6.920;2024-03-23T08:27:23;14.17;;;5.20;;
4122;SDS011;2075;51.062;6.920;2024-03-23T08:30:11;9.73;;;4.60;;
4122;SDS011;2075;51.062;6.920;2024-03-23T08:32:55;13.40;;;5.83;;
4122;SDS011;2075;51.062;6.920;2024-03-23T08:35:41;17.57;;;8.13;;
4122;SDS011;2075;51.062;6.920;2024-03-23T08:38:26;16.03;;;6.00;;
4122;SDS011;2075;51.062;6.920;2024-03-23T08:41:13;9.77;;;4.33;;
4122;SDS011;2075;51.062;6.920;2024-03-23T08:43:57;12.53;;;3.50;;
4122;SDS011;2075;51.062;6.920;2024-03-23T08:46:44;11.40;;;3.40;;
4122;SDS011;2075;51.062;6.920;2024-03-23T08:49:29;8.63;;;3.40;;
4122;SDS011;2075;51.062;6.920;2024-03-23T08:52:15;17.53;;;4.40;;
4122;SDS011;2075;51.062;6.920;2024-03-23T08:55:00;11.70;;;4.00;;
4122;SDS011;2075;51.062;6.920;2024-03-23T08:57:46;13.50;;;4.07;;
4122;SDS011;2075;51.062;6.920;2024-03-23T09:00:31;16.13;;;6.60;;
4122;SDS011;2075;51.062;6.920;2024-03-23T09:03:17;12.60;;;4.47;;
4122;SDS011;2075;51.062;6.920;2024-03-23T09:06:02;13.00;;;5.20;;
4122;SDS011;2075;51.062;6.920;2024-03-23T09:08:52;11.83;;;4.30;;
4122;SDS011;2075;51.062;6.920;2024-03-23T09:11:37;15.23;;;5.67;;
4122;SDS011;2075;51.062;6.920;2024-03-23T09:14:23;14.10;;;4.80;;
4122;SDS011;2075;51.062;6.920;2024-03-23T09:17:08;10.47;;;4.60;;
4122;SDS011;2075;51.062;6.920;2024-03-23T09:19:56;13.60;;;5.17;;
4122;SDS011;2075;51.062;6.920;2024-03-23T09:22:42;12.80;;;4.37;;
4122;SDS011;2075;51.062;6.920;2024-03-23T09:25:26;10.73;;;4.43;;
4122;SDS011;2075;51.062;6.920;2024-03-23T09:28:12;12.53;;;5.60;;
4122;SDS011;2075;51.062;6.920;2024-03-23T09:31:02;12.00;;;4.87;;
4122;SDS011;2075;51.062;6.920;2024-03-23T09:33:59;10.50;;;4.03;;
4122;SDS011;2075;51.062;6.920;2024-03-23T09:36:45;11.40;;;3.93;;
4122;SDS011;2075;51.062;6.920;2024-03-23T09:39:32;7.87;;;3.73;;
4122;SDS011;2075;51.062;6.920;2024-03-23T09:42:16;12.13;;;3.87;;
4122;SDS011;2075;51.062;6.920;2024-03-23T09:45:02;6.57;;;3.40;;
4122;SDS011;2075;51.062;6.920;2024-03-23T09:47:50;11.13;;;2.90;;
4122;SDS011;2075;51.062;6.920;2024-03-23T09:50:37;15.30;;;3.20;;
4122;SDS011;2075;51.062;6.920;2024-03-23T09:53:23;5.88;;;3.10;;
4122;SDS011;2075;51.062;6.920;2024-03-23T09:56:09;7.23;;;2.73;;
4122;SDS011;2075;51.062;6.920;2024-03-23T09:59:05;7.13;;;2.90;;
4122;SDS011;2075;51.062;6.920;2024-03-23T10:01:51;8.37;;;2.60;;
4122;SDS011;2075;51.062;6.920;2024-03-23T10:04:35;10.43;;;2.97;;
4122;SDS011;2075;51.062;6.920;2024-03-23T10:07:21;8.97;;;2.87;;
4122;SDS011;2075;51.062;6.920;2024-03-23T10:10:11;4.47;;;1.73;;
4122;SDS011;2075;51.062;6.920;2024-03-23T10:12:57;3.70;;;1.70;;
4122;SDS011;2075;51.062;6.920;2024-03-23T10:15:43;7.30;;;2.40;;
4122;SDS011;2075;51.062;6.920;2024-03-23T10:18:27;5.90;;;2.50;;
4122;SDS011;2075;51.062;6.920;2024-03-23T10:21:13;3.67;;;2.20;;
4122;SDS011;2075;51.062;6.920;2024-03-23T10:24:00;5.17;;;2.30;;
4122;SDS011;2075;51.062;6.920;2024-03-23T10:26:56;12.00;;;2.70;;
4122;SDS011;2075;51.062;6.920;2024-03-23T10:29:41;8.80;;;2.47;;
4122;SDS011;2075;51.062;6.920;2024-03-23T10:32:26;7.63;;;2.80;;
4122;SDS011;2075;51.062;6.920;2024-03-23T10:35:15;3.03;;;1.77;;
4122;SDS011;2075;51.062;6.920;2024-03-23T10:38:03;2.57;;;1.53;;
4122;SDS011;2075;51.062;6.920;2024-03-23T10:40:49;4.53;;;2.00;;
4122;SDS011;2075;51.062;6.920;2024-03-23T10:43:37;5.30;;;1.97;;
4122;SDS011;2075;51.062;6.920;2024-03-23T10:46:22;2.80;;;1.60;;
4122;SDS011;2075;51.062;6.920;2024-03-23T10:49:07;4.20;;;1.60;;
4122;SDS011;2075;51.062;6.920;2024-03-23T10:51:52;4.30;;;2.03;;
4122;SDS011;2075;51.062;6.920;2024-03-23T10:54:38;4.60;;;1.63;;
4122;SDS011;2075;51.062;6.920;2024-03-23T10:57:26;5.67;;;1.70;;
4122;SDS011;2075;51.062;6.920;2024-03-23T11:00:21;3.83;;;1.80;;
4122;SDS011;2075;51.062;6.920;2024-03-23T11:09:39;3.33;;;1.63;;
4122;SDS011;2075;51.062;6.920;2024-03-23T11:12:31;1.63;;;1.08;;
4122;SDS011;2075;51.062;6.920;2024-03-23T11:15:17;2.50;;;1.40;;
4122;SDS011;2075;51.062;6.920;2024-03-23T11:18:04;2.00;;;0.90;;
4122;SDS011;2075;51.062;6.920;2024-03-23T11:20:52;1.30;;;1.07;;
4122;SDS011;2075;51.062;6.920;2024-03-23T11:23:37;1.80;;;1.20;;
4122;SDS011;2075;51.062;6.920;2024-03-23T11:26:23;1.37;;;0.83;;
4122;SDS011;2075;51.062;6.920;2024-03-23T11:29:11;2.60;;;1.37;;
4122;SDS011;2075;51.062;6.920;2024-03-23T11:31:56;1.50;;;0.90;;
4122;SDS011;2075;51.062;6.920;2024-03-23T11:34:43;0.93;;;0.90;;
4122;SDS011;2075;51.062;6.920;2024-03-23T11:37:29;1.60;;;1.43;;
4122;SDS011;2075;51.062;6.920;2024-03-23T11:40:17;1.77;;;1.20;;
4122;SDS011;2075;51.062;6.920;2024-03-23T11:43:04;1.73;;;1.37;;
4122;SDS011;2075;51.062;6.920;2024-03-23T11:45:51;2.30;;;1.50;;
4122;SDS011;2075;51.062;6.920;2024-03-23T11:48:38;4.07;;;1.45;;
4122;SDS011;2075;51.062;6.920;2024-03-23T11:51:25;2.83;;;1.67;;
4122;SDS011;2075;51.062;6.920;2024-03-23T11:54:11;3.30;;;1.80;;
4122;SDS011;2075;51.062;6.920;2024-03-23T11:56:56;5.73;;;1.90;;
4122;SDS011;2075;51.062;6.920;2024-03-23T11:59:43;1.67;;;1.57;;
4122;SDS011;2075;51.062;6.920;2024-03-23T12:02:28;5.17;;;2.10;;
4122;SDS011;2075;51.062;6.920;2024-03-23T12:05:14;2.87;;;2.00;;
4122;SDS011;2075;51.062;6.920;2024-03-23T12:08:20;3.43;;;2.37;;
4122;SDS011;2075;51.062;6.920;2024-03-23T12:11:08;5.07;;;2.40;;
4122;SDS011;2075;51.062;6.920;2024-03-23T12:13:55;2.13;;;1.90;;
4122;SDS011;2075;51.062;6.920;2024-03-23T12:16:45;2.87;;;1.33;;
4122;SDS011;2075;51.062;6.920;2024-03-23T12:19:29;0.90;;;0.90;;
4122;SDS011;2075;51.062;6.920;2024-03-23T12:22:15;1.02;;;0.90;;
4122;SDS011;2075;51.062;6.920;2024-03-23T12:25:02;1.17;;;0.98;;
4122;SDS011;2075;51.062;6.920;2024-03-23T12:27:47;1.02;;;0.93;;
4122;SDS011;2075;51.062;6.920;2024-03-23T12:30:33;6.83;;;1.13;;
4122;SDS011;2075;51.062;6.920;2024-03-23T12:33:18;1.27;;;1.17;;
4122;SDS011;2075;51.062;6.920;2024-03-23T12:36:03;1.70;;;1.60;;
4122;SDS011;2075;51.062;6.920;2024-03-23T12:38:48;1.42;;;1.20;;
4122;SDS011;2075;51.062;6.920;2024-03-23T12:41:35;3.20;;;1.23;;
4122;SDS011;2075;51.062;6.920;2024-03-23T12:44:22;2.45;;;1.10;;
4122;SDS011;2075;51.062;6.920;2024-03-23T12:47:08;1.73;;;1.05;;
4122;SDS011;2075;51.062;6.920;2024-03-23T12:49:52;1.73;;;0.90;;
4122;SDS011;2075;51.062;6.920;2024-03-23T12:52:39;1.90;;;1.17;;
4122;SDS011;2075;51.062;6.920;2024-03-23T12:55:23;3.03;;;0.90;;
4122;SDS011;2075;51.062;6.920;2024-03-23T12:58:10;2.37;;;2.20;;
4122;SDS011;2075;51.062;6.920;2024-03-23T13:00:54;3.03;;;1.50;;
4122;SDS011;2075;51.062;6.920;2024-03-23T13:03:43;4.10;;;1.70;;
4122;SDS011;2075;51.062;6.920;2024-03-23T13:06:30;1.33;;;1.23;;
4122;SDS011;2075;51.062;6.920;2024-03-23T13:09:17;1.00;;;1.00;;
4122;SDS011;2075;51.062;6.920;2024-03-23T13:12:02;5.93;;;1.07;;
4122;SDS011;2075;51.062;6.920;2024-03-23T13:14:49;4.28;;;1.30;;
4122;SDS011;2075;51.062;6.920;2024-03-23T13:17:34;5.07;;;1.60;;
4122;SDS011;2075;51.062;6.920;2024-03-23T13:20:20;2.47;;;1.40;;
4122;SDS011;2075;51.062;6.920;2024-03-23T13:23:05;3.67;;;1.67;;
4122;SDS011;2075;51.062;6.920;2024-03-23T13:25:51;2.97;;;1.67;;
4122;SDS011;2075;51.062;6.920;2024-03-23T13:28:37;2.70;;;1.80;;
4122;SDS011;2075;51.062;6.920;2024-03-23T13:31:24;4.20;;;2.40;;
4122;SDS011;2075;51.062;6.920;2024-03-23T13:34:09;6.70;;;2.80;;
4122;SDS011;2075;51.062;6.920;2024-03-23T13:36:55;9.27;;;2.70;;
4122;SDS011;2075;51.062;6.920;2024-03-23T13:39:42;5.87;;;2.60;;
4122;SDS011;2075;51.062;6.920;2024-03-23T13:42:28;7.97;;;3.20;;
4122;SDS011;2075;51.062;6.920;2024-03-23T13:45:13;2.37;;;2.23;;
4122;SDS011;2075;51.062;6.920;2024-03-23T13:48:01;5.43;;;2.40;;
4122;SDS011;2075;51.062;6.920;2024-03-23T13:50:46;3.23;;;1.73;;
4122;SDS011;2075;51.062;6.920;2024-03-23T13:53:32;5.07;;;2.03;;
4122;SDS011;2075;51.062;6.920;2024-03-23T13:56:17;2.60;;;2.30;;
4122;SDS011;2075;51.062;6.920;2024-03-23T13:59:03;2.80;;;2.37;;
4122;SDS011;2075;51.062;6.920;2024-03-23T14:01:48;2.93;;;1.90;;
4122;SDS011;2075;51.062;6.920;2024-03-23T14:04:35;2.37;;;2.17;;
4122;SDS011;2075;51.062;6.920;2024-03-23T14:07:22;2.30;;;1.70;;
4122;SDS011;2075;51.062;6.920;2024-03-23T14:10:08;1.60;;;1.30;;
4122;SDS011;2075;51.062;6.920;2024-03-23T14:12:55;3.53;;;1.77;;
4122;SDS011;2075;51.062;6.920;2024-03-23T14:15:39;3.57;;;1.50;;
4122;SDS011;2075;51.062;6.920;2024-03-23T14:18:26;5.57;;;1.57;;
4122;SDS011;2075;51.062;6.920;2024-03-23T14:21:13;2.50;;;2.30;;
4122;SDS011;2075;51.062;6.920;2024-03-23T14:23:59;5.90;;;2.10;;
4122;SDS011;2075;51.062;6.920;2024-03-23T14:26:44;2.30;;;1.70;;
4122;SDS011;2075;51.062;6.920;2024-03-23T14:29:30;4.20;;;2.20;;
4122;SDS011;2075;51.062;6.920;2024-03-23T14:32:15;2.90;;;2.00;;
4122;SDS011;2075;51.062;6.920;2024-03-23T14:35:01;6.93;;;1.80;;
4122;SDS011;2075;51.062;6.920;2024-03-23T14:37:48;2.67;;;2.40;;
4122;SDS011;2075;51.062;6.920;2024-03-23T14:40:33;7.10;;;2.30;;
4122;SDS011;2075;51.062;6.920;2024-03-23T14:43:18;2.80;;;1.87;;
4122;SDS011;2075;51.062;6.920;2024-03-23T14:46:05;5.47;;;1.90;;
4122;SDS011;2075;51.062;6.920;2024-03-23T14:48:51;1.57;;;1.47;;
4122;SDS011;2075;51.062;6.920;2024-03-23T14:51:38;1.93;;;1.80;;
4122;SDS011;2075;51.062;6.920;2024-03-23T14:54:24;5.33;;;2.27;;
4122;SDS011;2075;51.062;6.920;2024-03-23T14:57:10;2.13;;;1.93;;
4122;SDS011;2075;51.062;6.920;2024-03-23T14:59:55;3.80;;;2.03;;
4122;SDS011;2075;51.062;6.920;2024-03-23T15:02:41;1.97;;;1.83;;
4122;SDS011;2075;51.062;6.920;2024-03-23T15:05:26;6.10;;;4.40;;
4122;SDS011;2075;51.062;6.920;2024-03-23T15:08:12;1.63;;;1.47;;
4122;SDS011;2075;51.062;6.920;2024-03-23T15:10:59;5.07;;;2.20;;
4122;SDS011;2075;51.062;6.920;2024-03-23T15:13:49;2.50;;;2.30;;
4122;SDS011;2075;51.062;6.920;2024-03-23T15:16:34;2.73;;;2.03;;
4122;SDS011;2075;51.062;6.920;2024-03-23T15:19:20;3.70;;;2.00;;
4122;SDS011;2075;51.062;6.920;2024-03-23T15:22:05;2.63;;;2.20;;
4122;SDS011;2075;51.062;6.920;2024-03-23T15:24:52;3.03;;;1.80;;
4122;SDS011;2075;51.062;6.920;2024-03-23T15:27:39;2.27;;;2.00;;
4122;SDS011;2075;51.062;6.920;2024-03-23T15:30:24;3.33;;;1.80;;
4122;SDS011;2075;51.062;6.920;2024-03-23T15:33:09;1.83;;;1.73;;
4122;SDS011;2075;51.062;6.920;2024-03-23T15:35:58;2.07;;;1.90;;
4122;SDS011;2075;51.062;6.920;2024-03-23T15:38:43;3.27;;;2.23;;
4122;SDS011;2075;51.062;6.920;2024-03-23T15:41:29;1.80;;;1.70;;
4122;SDS011;2075;51.062;6.920;2024-03-23T15:44:16;2.03;;;1.67;;
4122;SDS011;2075;51.062;6.920;2024-03-23T15:47:01;3.30;;;2.10;;
4122;SDS011;2075;51.062;6.920;2024-03-23T15:49:47;4.07;;;1.80;;
4122;SDS011;2075;51.062;6.920;2024-03-23T15:52:31;1.63;;;1.50;;
4122;SDS011;2075;51.062;6.920;2024-03-23T15:55:17;1.63;;;1.57;;
4122;SDS011;2075;51.062;6.920;2024-03-23T15:58:02;5.90;;;1.70;;
4122;SDS011;2075;51.062;6.920;2024-03-23T16:00:55;1.73;;;1.63;;
4122;SDS011;2075;51.062;6.920;2024-03-23T16:03:40;2.50;;;1.60;;
4122;SDS011;2075;51.062;6.920;2024-03-23T16:06:26;2.00;;;1.27;;
4122;SDS011;2075;51.062;6.920;2024-03-23T16:09:10;2.07;;;1.47;;
4122;SDS011;2075;51.062;6.920;2024-03-23T16:11:57;1.90;;;1.80;;
4122;SDS011;2075;51.062;6.920;2024-03-23T16:14:42;4.40;;;1.70;;
4122;SDS011;2075;51.062;6.920;2024-03-23T16:17:30;3.20;;;1.60;;
4122;SDS011;2075;51.062;6.920;2024-03-23T16:20:19;4.80;;;1.67;;
4122;SDS011;2075;51.062;6.920;2024-03-23T16:23:05;5.30;;;1.70;;
4122;SDS011;2075;51.062;6.920;2024-03-23T16:25:51;3.73;;;1.47;;
4122;SDS011;2075;51.062;6.920;2024-03-23T16:28:40;3.03;;;1.63;;
4122;SDS011;2075;51.062;6.920;2024-03-23T16:31:25;3.10;;;2.00;;
4122;SDS011;2075;51.062;6.920;2024-03-23T16:34:14;1.90;;;1.63;;
4122;SDS011;2075;51.062;6.920;2024-03-23T16:36:58;1.93;;;1.70;;
4122;SDS011;2075;51.062;6.920;2024-03-23T16:39:44;3.30;;;1.70;;
4122;SDS011;2075;51.062;6.920;2024-03-23T16:42:28;2.17;;;1.77;;
4122;SDS011;2075;51.062;6.920;2024-03-23T16:45:14;2.10;;;2.00;;
4122;SDS011;2075;51.062;6.920;2024-03-23T16:47:59;9.20;;;2.20;;
4122;SDS011;2075;51.062;6.920;2024-03-23T16:50:49;3.30;;;1.80;;
4122;SDS011;2075;51.062;6.920;2024-03-23T16:53:33;2.70;;;1.70;;
4122;SDS011;2075;51.062;6.920;2024-03-23T16:56:20;3.80;;;2.43;;
4122;SDS011;2075;51.062;6.920;2024-03-23T16:59:04;2.27;;;1.67;;
4122;SDS011;2075;51.062;6.920;2024-03-23T17:01:50;2.70;;;1.77;;
4122;SDS011;2075;51.062;6.920;2024-03-23T17:04:35;5.17;;;1.63;;
4122;SDS011;2075;51.062;6.920;2024-03-23T17:07:23;1.77;;;1.40;;
4122;SDS011;2075;51.062;6.920;2024-03-23T17:10:08;1.60;;;1.50;;
4122;SDS011;2075;51.062;6.920;2024-03-23T17:12:54;4.63;;;1.67;;
4122;SDS011;2075;51.062;6.920;2024-03-23T17:15:42;2.17;;;1.50;;
4122;SDS011;2075;51.062;6.920;2024-03-23T17:18:30;1.43;;;1.33;;
4122;SDS011;2075;51.062;6.920;2024-03-23T17:21:15;1.40;;;1.30;;
4122;SDS011;2075;51.062;6.920;2024-03-23T17:24:03;2.10;;;1.37;;
4122;SDS011;2075;51.062;6.920;2024-03-23T17:26:48;5.70;;;1.63;;
4122;SDS011;2075;51.062;6.920;2024-03-23T17:29:34;2.03;;;1.50;;
4122;SDS011;2075;51.062;6.920;2024-03-23T17:32:19;1.60;;;1.50;;
4122;SDS011;2075;51.062;6.920;2024-03-23T17:35:05;3.80;;;1.60;;
4122;SDS011;2075;51.062;6.920;2024-03-23T17:37:50;1.83;;;1.53;;
4122;SDS011;2075;51.062;6.920;2024-03-23T17:40:38;3.10;;;1.80;;
4122;SDS011;2075;51.062;6.920;2024-03-23T17:43:22;2.20;;;2.00;;
4122;SDS011;2075;51.062;6.920;2024-03-23T17:46:08;4.63;;;1.73;;
4122;SDS011;2075;51.062;6.920;2024-03-23T17:48:53;3.73;;;2.60;;
4122;SDS011;2075;51.062;6.920;2024-03-23T17:51:38;6.87;;;2.40;;
4122;SDS011;2075;51.062;6.920;2024-03-23T17:54:23;4.27;;;3.63;;
4122;SDS011;2075;51.062;6.920;2024-03-23T17:57:11;4.17;;;1.73;;
4122;SDS011;2075;51.062;6.920;2024-03-23T17:59:57;2.60;;;2.37;;
4122;SDS011;2075;51.062;6.920;2024-03-23T18:02:44;2.57;;;1.60;;
4122;SDS011;2075;51.062;6.920;2024-03-23T18:05:30;4.80;;;2.63;;